createdAt,value
2022-08-20T00:00:10.000Z,17.8
2022-08-20T00:01:27.000Z,17.8
2022-08-20T00:02:43.407Z,17.8
2022-08-20T00:03:59.552Z,17.8
2022-08-20T00:05:14.000Z,17.8
2022-08-20T00:06:30.000Z,17.8
2022-08-20T00:07:47.018Z,17.8
2022-08-20T00:09:03.151Z,17.8
2022-08-20T00:10:19.000Z,17.8
2022-08-20T00:11:35.000Z,17.8
2022-08-20T00:12:51.000Z,17.8
2022-08-20T00:14:07.000Z,17.8
2022-08-20T00:15:23.000Z,17.8
2022-08-20T00:16:39.000Z,17.8
2022-08-20T00:17:56.170Z,17.8
2022-08-20T00:19:12.000Z,17.8
2022-08-20T00:20:28.000Z,17.8
2022-08-20T00:21:43.000Z,17.9
2022-08-20T00:22:59.000Z,17.9
2022-08-20T00:24:15.000Z,17.9
2022-08-20T00:25:32.054Z,17.9
2022-08-20T00:26:47.000Z,17.9
2022-08-20T00:28:04.000Z,17.9
2022-08-20T00:29:20.000Z,17.9
2022-08-20T00:30:36.000Z,17.9
2022-08-20T00:31:52.000Z,17.9
2022-08-20T00:33:08.000Z,17.9
2022-08-20T00:34:24.000Z,17.9
2022-08-20T00:35:41.213Z,17.9
2022-08-20T00:36:57.000Z,17.9
2022-08-20T00:38:12.000Z,17.9
2022-08-20T00:39:28.000Z,17.9
2022-08-20T00:40:44.000Z,17.9
2022-08-20T00:42:00.000Z,17.9
2022-08-20T00:43:16.000Z,17.9
2022-08-20T00:44:33.000Z,17.8
2022-08-20T00:45:49.000Z,17.8
2022-08-20T00:47:05.000Z,17.7
2022-08-20T00:48:21.000Z,17.7
2022-08-20T00:49:37.000Z,17.6
2022-08-20T00:50:53.000Z,17.6
2022-08-20T00:52:09.000Z,17.6
2022-08-20T00:53:26.000Z,17.5
2022-08-20T00:54:41.000Z,17.5
2022-08-20T00:55:57.000Z,17.5
2022-08-20T00:57:13.000Z,17.4
2022-08-20T00:58:29.000Z,17.4
2022-08-20T00:59:45.000Z,17.4
2022-08-20T01:01:02.152Z,17.4
2022-08-20T01:02:18.000Z,17.4
2022-08-20T01:03:34.000Z,17.3
2022-08-20T01:04:50.000Z,17.3
2022-08-20T01:06:06.000Z,17.3
2022-08-20T01:07:22.000Z,17.3
2022-08-20T01:08:39.025Z,17.3
2022-08-20T01:09:54.000Z,17.3
2022-08-20T01:11:10.327Z,17.3
2022-08-20T01:12:26.470Z,17.3
2022-08-20T01:13:42.000Z,17.3
2022-08-20T01:14:58.000Z,17.3
2022-08-20T01:16:14.000Z,17.2
2022-08-20T01:17:30.000Z,17.2
2022-08-20T01:18:46.000Z,17.2
2022-08-20T01:20:03.000Z,17.2
2022-08-20T01:21:19.489Z,17.2
2022-08-20T01:22:35.634Z,17.2
2022-08-20T01:23:51.778Z,17.2
2022-08-20T01:25:07.000Z,17.2
2022-08-20T01:26:23.000Z,17.1
2022-08-20T01:27:39.000Z,17.1
2022-08-20T01:28:55.000Z,17.1
2022-08-20T01:30:11.000Z,17.1
2022-08-20T01:31:27.000Z,17.1
2022-08-20T01:32:43.000Z,17.1
2022-08-20T01:33:59.000Z,17.1
2022-08-20T01:35:15.000Z,17.1
2022-08-20T01:36:32.000Z,17.1
2022-08-20T01:37:48.000Z,17.1
2022-08-20T01:39:04.540Z,17.2
2022-08-20T01:40:20.000Z,17.2
2022-08-20T01:41:36.000Z,17.3
2022-08-20T01:42:52.000Z,17.3
2022-08-20T01:44:07.000Z,17.4
2022-08-20T01:45:24.000Z,17.4
2022-08-20T01:46:40.000Z,17.5
2022-08-20T01:47:56.577Z,17.5
2022-08-20T01:49:12.000Z,17.5
2022-08-20T01:50:28.000Z,17.5
2022-08-20T01:51:44.000Z,17.5
2022-08-20T01:53:00.000Z,17.4
2022-08-20T01:54:17.000Z,17.4
2022-08-20T01:55:33.000Z,17.4
2022-08-20T01:56:49.000Z,17.4
2022-08-20T01:58:05.737Z,17.4
2022-08-20T01:59:21.000Z,17.3
2022-08-20T02:00:36.000Z,17.3
2022-08-20T02:01:53.192Z,17.3
2022-08-20T02:03:09.331Z,17.3
2022-08-20T02:04:25.000Z,17.3
2022-08-20T02:05:41.000Z,17.3
2022-08-20T02:06:57.000Z,17.3
2022-08-20T02:08:13.000Z,17.3
2022-08-20T02:09:29.000Z,17.3
2022-08-20T02:10:45.000Z,17.3
2022-08-20T02:12:02.357Z,17.3
2022-08-20T02:13:18.000Z,17.2
2022-08-20T02:14:34.000Z,17.2
2022-08-20T02:15:50.000Z,17.2
2022-08-20T02:17:05.000Z,17.2
2022-08-20T02:18:21.000Z,17.2
2022-08-20T02:19:38.000Z,17.2
2022-08-20T02:20:54.000Z,17.2
2022-08-20T02:22:10.000Z,17.2
2022-08-20T02:23:26.000Z,17.2
2022-08-20T02:24:42.000Z,17.2
2022-08-20T02:25:58.000Z,17.2
2022-08-20T02:27:14.000Z,17.2
2022-08-20T02:28:31.000Z,17.2
2022-08-20T02:29:47.000Z,17.2
2022-08-20T02:31:03.000Z,17.2
2022-08-20T02:32:19.000Z,17.2
2022-08-20T02:33:34.000Z,17.2
2022-08-20T02:34:50.000Z,17.2
2022-08-20T02:36:06.000Z,17.2
2022-08-20T02:37:23.000Z,17.1
2022-08-20T02:38:39.000Z,17.1
2022-08-20T02:39:55.000Z,17.1
2022-08-20T02:41:11.000Z,17.1
2022-08-20T02:42:27.000Z,17.1
2022-08-20T02:43:44.018Z,17.1
2022-08-20T02:44:59.000Z,17.1
2022-08-20T02:46:16.000Z,17.1
2022-08-20T02:47:32.000Z,17.1
2022-08-20T02:48:48.000Z,17.1
2022-08-20T02:50:03.000Z,17.1
2022-08-20T02:51:19.000Z,17.1
2022-08-20T02:52:35.000Z,17.1
2022-08-20T02:53:51.000Z,17.1
2022-08-20T02:55:08.000Z,17.2
2022-08-20T02:56:24.000Z,17.2
2022-08-20T02:57:40.629Z,17.2
2022-08-20T02:58:56.000Z,17.2
2022-08-20T03:00:12.000Z,17.2
2022-08-20T03:01:28.000Z,17.2
2022-08-20T03:02:44.000Z,17.3
2022-08-20T03:04:01.000Z,17.3
2022-08-20T03:05:17.000Z,17.3
2022-08-20T03:06:32.665Z,17.3
2022-08-20T03:07:48.000Z,17.3
2022-08-20T03:09:04.000Z,17.3
2022-08-20T03:10:20.000Z,17.3
2022-08-20T03:11:37.000Z,17.3
2022-08-20T03:12:53.000Z,17.3
2022-08-20T03:14:09.000Z,17.3
2022-08-20T03:15:25.681Z,17.3
2022-08-20T03:16:41.000Z,17.3
2022-08-20T03:17:57.000Z,17.3
2022-08-20T03:19:14.121Z,17.3
2022-08-20T03:20:30.000Z,17.3
2022-08-20T03:21:46.000Z,17.3
2022-08-20T03:23:01.000Z,17.3
2022-08-20T03:24:17.000Z,17.4
2022-08-20T03:25:33.000Z,17.4
2022-08-20T03:26:50.021Z,17.4
2022-08-20T03:28:05.000Z,17.4
2022-08-20T03:29:22.000Z,17.4
2022-08-20T03:30:37.000Z,17.4
2022-08-20T03:31:53.000Z,17.5
2022-08-20T03:33:09.000Z,17.5
2022-08-20T03:34:25.897Z,17.5
2022-08-20T03:35:41.000Z,17.5
2022-08-20T03:36:57.000Z,17.6
2022-08-20T03:38:14.000Z,17.6
2022-08-20T03:39:30.000Z,17.6
2022-08-20T03:40:46.626Z,17.6
2022-08-20T03:42:02.000Z,17.6
2022-08-20T03:43:18.000Z,17.6
2022-08-20T03:44:34.000Z,17.6
2022-08-20T03:45:50.000Z,17.6
2022-08-20T03:47:06.000Z,17.6
2022-08-20T03:48:22.000Z,17.6
2022-08-20T03:49:38.000Z,17.6
2022-08-20T03:50:54.804Z,17.6
2022-08-20T03:52:10.000Z,17.6
2022-08-20T03:53:26.000Z,17.6
2022-08-20T03:54:43.000Z,17.6
2022-08-20T03:55:59.000Z,17.6
2022-08-20T03:57:15.000Z,17.6
2022-08-20T03:58:31.000Z,17.6
2022-08-20T03:59:47.000Z,17.6
2022-08-20T04:01:03.000Z,17.6
2022-08-20T04:02:19.000Z,17.6
2022-08-20T04:03:35.000Z,17.6
2022-08-20T04:04:51.000Z,17.6
2022-08-20T04:06:07.000Z,17.6
2022-08-20T04:07:23.713Z,17.6
2022-08-20T04:08:39.000Z,17.6
2022-08-20T04:09:55.000Z,17.6
2022-08-20T04:11:11.000Z,17.6
2022-08-20T04:12:28.000Z,17.6
2022-08-20T04:13:44.000Z,17.6
2022-08-20T04:15:00.000Z,17.6
2022-08-20T04:16:16.000Z,17.5
2022-08-20T04:17:32.000Z,17.5
2022-08-20T04:18:49.017Z,17.5
2022-08-20T04:20:04.178Z,17.5
2022-08-20T04:21:20.000Z,17.5
2022-08-20T04:22:36.469Z,17.4
2022-08-20T04:23:52.000Z,17.4
2022-08-20T04:25:08.762Z,17.4
2022-08-20T04:26:24.000Z,17.4
2022-08-20T04:27:40.000Z,17.3
2022-08-20T04:28:57.195Z,17.3
2022-08-20T04:30:13.334Z,17.3
2022-08-20T04:31:29.478Z,17.3
2022-08-20T04:32:45.000Z,17.3
2022-08-20T04:34:01.000Z,17.3
2022-08-20T04:35:17.000Z,17.3
2022-08-20T04:36:32.000Z,17.3
2022-08-20T04:37:49.000Z,17.2
2022-08-20T04:39:05.000Z,17.2
2022-08-20T04:40:21.000Z,17.2
2022-08-20T04:41:37.661Z,17.2
2022-08-20T04:42:53.000Z,17.2
2022-08-20T04:44:09.000Z,17.2
2022-08-20T04:45:25.000Z,17.2
2022-08-20T04:46:42.000Z,17.2
2022-08-20T04:47:58.000Z,17.2
2022-08-20T04:49:14.000Z,17.3
2022-08-20T04:50:30.000Z,17.3
2022-08-20T04:51:46.820Z,17.3
2022-08-20T04:53:01.000Z,17.3
2022-08-20T04:54:17.000Z,17.3
2022-08-20T04:55:34.000Z,17.3
2022-08-20T04:56:50.000Z,17.3
2022-08-20T04:58:06.000Z,17.3
2022-08-20T04:59:22.000Z,17.3
2022-08-20T05:00:38.000Z,17.3
2022-08-20T05:01:54.000Z,17.3
2022-08-20T05:03:11.164Z,17.3
2022-08-20T05:04:27.000Z,17.3
2022-08-20T05:05:43.000Z,17.3
2022-08-20T05:06:59.000Z,17.3
2022-08-20T05:08:15.000Z,17.2
2022-08-20T05:09:30.892Z,17.2
2022-08-20T05:10:46.000Z,17.2
2022-08-20T05:12:03.177Z,17.1
2022-08-20T05:13:19.000Z,17.1
2022-08-20T05:14:35.000Z,17.1
2022-08-20T05:15:51.000Z,17
2022-08-20T05:17:07.000Z,17
2022-08-20T05:18:23.000Z,17
2022-08-20T05:19:39.000Z,17
2022-08-20T05:20:55.000Z,16.9
2022-08-20T05:22:12.000Z,16.9
2022-08-20T05:23:28.000Z,16.9
2022-08-20T05:24:44.000Z,16.9
2022-08-20T05:25:59.000Z,16.9
2022-08-20T05:27:15.000Z,16.9
2022-08-20T05:28:32.086Z,16.9
2022-08-20T05:29:47.000Z,16.9
2022-08-20T05:31:04.000Z,16.9
2022-08-20T05:32:20.000Z,16.9
2022-08-20T05:33:36.000Z,16.9
2022-08-20T05:34:52.000Z,17
2022-08-20T05:36:08.956Z,17
2022-08-20T05:37:24.000Z,17
2022-08-20T05:38:41.000Z,17
2022-08-20T05:39:57.000Z,17
2022-08-20T05:41:13.000Z,17
2022-08-20T05:42:28.000Z,17.1
2022-08-20T05:43:44.000Z,17.1
2022-08-20T05:45:00.991Z,17.1
2022-08-20T05:46:16.000Z,17.1
2022-08-20T05:47:33.281Z,17.2
2022-08-20T05:48:49.445Z,17.2
2022-08-20T05:50:05.000Z,17.2
2022-08-20T05:51:21.721Z,17.2
2022-08-20T05:52:37.000Z,17.3
2022-08-20T05:53:54.024Z,17.3
2022-08-20T05:55:09.000Z,17.3
2022-08-20T05:56:26.296Z,17.4
2022-08-20T05:57:42.000Z,17.4
2022-08-20T05:58:57.601Z,17.4
2022-08-20T06:00:13.000Z,17.5
2022-08-20T06:01:29.000Z,17.5
2022-08-20T06:02:45.000Z,17.6
2022-08-20T06:04:01.000Z,17.6
2022-08-20T06:05:18.332Z,17.7
2022-08-20T06:06:34.000Z,17.7
2022-08-20T06:07:50.000Z,17.7
2022-08-20T06:09:06.000Z,17.8
2022-08-20T06:10:22.000Z,17.8
2022-08-20T06:11:38.000Z,17.8
2022-08-20T06:12:54.000Z,17.9
2022-08-20T06:14:11.348Z,17.9
2022-08-20T06:15:26.000Z,18
2022-08-20T06:16:42.655Z,18
2022-08-20T06:17:58.000Z,18.1
2022-08-20T06:19:14.000Z,18.2
2022-08-20T06:20:30.000Z,18.2
2022-08-20T06:21:47.000Z,18.3
2022-08-20T06:23:03.000Z,18.4
2022-08-20T06:24:19.528Z,18.5
2022-08-20T06:25:35.000Z,18.5
2022-08-20T06:26:51.000Z,18.6
2022-08-20T06:28:07.000Z,18.6
2022-08-20T06:29:24.113Z,18.6
2022-08-20T06:30:40.000Z,18.7
2022-08-20T06:31:55.000Z,18.7
2022-08-20T06:33:11.000Z,18.7
2022-08-20T06:34:27.000Z,18.8
2022-08-20T06:35:43.000Z,18.8
2022-08-20T06:36:59.000Z,18.8
2022-08-20T06:38:15.000Z,18.8
2022-08-20T06:39:32.000Z,18.9
2022-08-20T06:40:48.436Z,18.9
2022-08-20T06:42:04.000Z,19
2022-08-20T06:43:20.000Z,19
2022-08-20T06:44:36.000Z,19.1
2022-08-20T06:45:52.000Z,19.1
2022-08-20T06:47:08.000Z,19.2
2022-08-20T06:48:24.000Z,19.2
2022-08-20T06:49:40.468Z,19.3
2022-08-20T06:50:56.000Z,19.3
2022-08-20T06:52:12.000Z,19.4
2022-08-20T06:53:28.000Z,19.4
2022-08-20T06:54:44.000Z,19.5
2022-08-20T06:56:00.000Z,19.6
2022-08-20T06:57:17.000Z,19.6
2022-08-20T06:58:33.000Z,19.7
2022-08-20T06:59:49.000Z,19.8
2022-08-20T07:01:05.781Z,19.8
2022-08-20T07:02:21.000Z,19.8
2022-08-20T07:03:37.000Z,19.8
2022-08-20T07:04:52.000Z,19.9
2022-08-20T07:06:09.000Z,19.9
2022-08-20T07:07:25.000Z,19.9
2022-08-20T07:08:41.000Z,19.9
2022-08-20T07:09:57.000Z,20
2022-08-20T07:11:13.000Z,20
2022-08-20T07:12:30.109Z,20.1
2022-08-20T07:13:46.252Z,20.2
2022-08-20T07:15:02.000Z,20.2
2022-08-20T07:16:18.000Z,20.4
2022-08-20T07:17:34.693Z,20.5
2022-08-20T07:18:50.000Z,20.6
2022-08-20T07:20:06.000Z,20.7
2022-08-20T07:21:21.000Z,20.8
2022-08-20T07:22:38.286Z,20.9
2022-08-20T07:23:54.000Z,21
2022-08-20T07:25:10.000Z,21.1
2022-08-20T07:26:26.000Z,21.2
2022-08-20T07:27:42.859Z,21.4
2022-08-20T07:28:58.000Z,21.7
2022-08-20T07:30:14.000Z,21.8
2022-08-20T07:31:31.000Z,22
2022-08-20T07:32:47.000Z,22.2
2022-08-20T07:34:03.000Z,22.6
2022-08-20T07:35:19.733Z,22.8
2022-08-20T07:36:35.000Z,23.2
2022-08-20T07:37:50.000Z,23.5
2022-08-20T07:39:06.000Z,23.9
2022-08-20T07:40:23.000Z,24.2
2022-08-20T07:41:39.000Z,24.4
2022-08-20T07:42:55.617Z,24.5
2022-08-20T07:44:11.000Z,24.5
2022-08-20T07:45:26.000Z,24.3
2022-08-20T07:46:42.000Z,24.1
2022-08-20T07:47:58.000Z,23.9
2022-08-20T07:49:15.000Z,23.8
2022-08-20T07:50:31.000Z,23.8
2022-08-20T07:51:47.000Z,23.8
2022-08-20T07:53:03.000Z,23.9
2022-08-20T07:54:19.000Z,24
2022-08-20T07:55:35.000Z,24.1
2022-08-20T07:56:52.000Z,24.2
2022-08-20T07:58:08.000Z,24.4
2022-08-20T07:59:24.000Z,24.5
2022-08-20T08:00:40.000Z,24.7
2022-08-20T08:01:55.000Z,24.7
2022-08-20T08:03:11.000Z,24.9
2022-08-20T08:04:27.000Z,25.1
2022-08-20T08:05:44.283Z,25.2
2022-08-20T08:07:00.000Z,25.4
2022-08-20T08:08:16.000Z,25.5
2022-08-20T08:09:32.000Z,25.7
2022-08-20T08:10:48.000Z,25.8
2022-08-20T08:12:04.000Z,25.8
2022-08-20T08:13:21.146Z,25.9
2022-08-20T08:14:37.000Z,26.1
2022-08-20T08:15:53.000Z,26.3
2022-08-20T08:17:09.000Z,26.6
2022-08-20T08:18:24.000Z,26.8
2022-08-20T08:19:40.000Z,27.1
2022-08-20T08:20:56.000Z,27.4
2022-08-20T08:22:12.000Z,27.5
2022-08-20T08:23:29.000Z,27.7
2022-08-20T08:24:45.000Z,27.8
2022-08-20T08:26:01.000Z,27.9
2022-08-20T08:27:17.000Z,28
2022-08-20T08:28:33.000Z,28.2
2022-08-20T08:29:50.070Z,28.3
2022-08-20T08:31:05.000Z,28.3
2022-08-20T08:32:22.000Z,28.4
2022-08-20T08:33:38.000Z,28.4
2022-08-20T08:34:53.000Z,28.5
2022-08-20T08:36:09.000Z,28.6
2022-08-20T08:37:25.958Z,28.7
2022-08-20T08:38:41.000Z,28.7
2022-08-20T08:39:58.000Z,28.7
2022-08-20T08:41:14.000Z,28.7
2022-08-20T08:42:30.548Z,28.7
2022-08-20T08:43:46.000Z,28.7
2022-08-20T08:45:02.845Z,28.8
2022-08-20T08:46:18.000Z,28.7
2022-08-20T08:47:35.128Z,28.6
2022-08-20T08:48:51.000Z,28.4
2022-08-20T08:50:07.000Z,28.2
2022-08-20T08:51:22.000Z,28
2022-08-20T08:52:38.000Z,27.8
2022-08-20T08:53:54.899Z,27.9
2022-08-20T08:55:10.000Z,27.9
2022-08-20T08:56:26.000Z,28
2022-08-20T08:57:43.000Z,28
2022-08-20T08:58:59.000Z,28
2022-08-20T09:00:15.000Z,27.9
2022-08-20T09:01:31.000Z,27.8
2022-08-20T09:02:47.000Z,27.7
2022-08-20T09:04:03.000Z,27.5
2022-08-20T09:05:19.000Z,27.4
2022-08-20T09:06:36.000Z,27.3
2022-08-20T09:07:51.000Z,27.3
2022-08-20T09:09:07.658Z,27.3
2022-08-20T09:10:23.000Z,27.4
2022-08-20T09:11:39.000Z,27.5
2022-08-20T09:12:56.105Z,27.5
2022-08-20T09:14:12.000Z,27.5
2022-08-20T09:15:28.000Z,27.8
2022-08-20T09:16:44.000Z,28
2022-08-20T09:18:00.000Z,28.1
2022-08-20T09:19:16.000Z,28.3
2022-08-20T09:20:32.000Z,28.5
2022-08-20T09:21:48.000Z,28.7
2022-08-20T09:23:05.000Z,28.8
2022-08-20T09:24:20.000Z,28.8
2022-08-20T09:25:36.000Z,28.9
2022-08-20T09:26:52.000Z,29
2022-08-20T09:28:08.877Z,29
2022-08-20T09:29:24.000Z,29
2022-08-20T09:30:40.000Z,29
2022-08-20T09:31:57.000Z,29.1
2022-08-20T09:33:13.000Z,29.1
2022-08-20T09:34:29.000Z,29
2022-08-20T09:35:45.762Z,29.1
2022-08-20T09:37:01.000Z,29.1
2022-08-20T09:38:17.000Z,29.2
2022-08-20T09:39:33.000Z,29.3
2022-08-20T09:40:49.000Z,29.4
2022-08-20T09:42:05.508Z,29.5
2022-08-20T09:43:21.653Z,29.5
2022-08-20T09:44:37.000Z,29.6
2022-08-20T09:45:53.000Z,29.8
2022-08-20T09:47:09.000Z,30
2022-08-20T09:48:26.000Z,30.1
2022-08-20T09:49:42.000Z,30.1
2022-08-20T09:50:58.000Z,30.1
2022-08-20T09:52:14.686Z,30.1
2022-08-20T09:53:30.000Z,30.1
2022-08-20T09:54:46.000Z,30.2
2022-08-20T09:56:02.000Z,30.3
2022-08-20T09:57:18.000Z,30.4
2022-08-20T09:58:34.432Z,30.4
2022-08-20T09:59:50.000Z,30.6
2022-08-20T10:01:06.725Z,30.6
2022-08-20T10:02:22.000Z,30.5
2022-08-20T10:03:38.000Z,30.5
2022-08-20T10:04:54.000Z,30.4
2022-08-20T10:06:11.000Z,30.2
2022-08-20T10:07:27.000Z,30
2022-08-20T10:08:43.000Z,29.9
2022-08-20T10:09:59.755Z,29.9
2022-08-20T10:11:15.901Z,29.9
2022-08-20T10:12:31.000Z,29.9
2022-08-20T10:13:46.000Z,29.9
2022-08-20T10:15:03.000Z,30
2022-08-20T10:16:19.000Z,30.1
2022-08-20T10:17:35.649Z,30.2
2022-08-20T10:18:51.000Z,30.3
2022-08-20T10:20:07.000Z,30.4
2022-08-20T10:21:23.000Z,30.4
2022-08-20T10:22:40.234Z,30.3
2022-08-20T10:23:56.000Z,30
2022-08-20T10:25:12.000Z,29.9
2022-08-20T10:26:28.000Z,29.7
2022-08-20T10:27:44.000Z,29.5
2022-08-20T10:29:00.000Z,29.2
2022-08-20T10:30:15.000Z,28.9
2022-08-20T10:31:32.000Z,29
2022-08-20T10:32:48.428Z,29.1
2022-08-20T10:34:04.000Z,29.1
2022-08-20T10:35:20.000Z,29.2
2022-08-20T10:36:36.000Z,29.3
2022-08-20T10:37:52.000Z,29.3
2022-08-20T10:39:08.000Z,29.3
2022-08-20T10:40:25.000Z,29.1
2022-08-20T10:41:41.000Z,29.1
2022-08-20T10:42:57.000Z,29.1
2022-08-20T10:44:13.000Z,29.3
2022-08-20T10:45:29.000Z,29.4
2022-08-20T10:46:44.000Z,29.2
2022-08-20T10:48:00.000Z,29
2022-08-20T10:49:17.350Z,28.7
2022-08-20T10:50:33.000Z,28.5
2022-08-20T10:51:49.000Z,28.4
2022-08-20T10:53:05.000Z,28.4
2022-08-20T10:54:21.933Z,28.5
2022-08-20T10:55:37.000Z,28.6
2022-08-20T10:56:53.000Z,28.7
2022-08-20T10:58:10.000Z,28.6
2022-08-20T10:59:26.000Z,28.5
2022-08-20T11:00:42.000Z,28.4
2022-08-20T11:01:58.000Z,28.4
2022-08-20T11:03:13.000Z,28.3
2022-08-20T11:04:29.000Z,28.4
2022-08-20T11:05:46.000Z,28.3
2022-08-20T11:07:02.000Z,28.3
2022-08-20T11:08:18.582Z,28.3
2022-08-20T11:09:34.000Z,28.2
2022-08-20T11:10:50.855Z,28.2
2022-08-20T11:12:06.000Z,28.2
2022-08-20T11:13:22.000Z,28
2022-08-20T11:14:39.000Z,27.9
2022-08-20T11:15:55.000Z,27.9
2022-08-20T11:17:11.000Z,28
2022-08-20T11:18:27.000Z,28.1
2022-08-20T11:19:42.905Z,28
2022-08-20T11:20:58.000Z,28
2022-08-20T11:22:14.000Z,27.9
2022-08-20T11:23:31.000Z,27.8
2022-08-20T11:24:47.000Z,27.7
2022-08-20T11:26:03.000Z,27.7
2022-08-20T11:27:19.000Z,27.7
2022-08-20T11:28:35.000Z,27.8
2022-08-20T11:29:51.000Z,27.9
2022-08-20T11:31:07.000Z,28
2022-08-20T11:32:24.000Z,28.1
2022-08-20T11:33:40.000Z,28.1
2022-08-20T11:34:56.000Z,28.1
2022-08-20T11:36:11.828Z,28.1
2022-08-20T11:37:27.000Z,28.1
2022-08-20T11:38:43.000Z,28.1
2022-08-20T11:40:00.000Z,28.1
2022-08-20T11:41:16.000Z,28
2022-08-20T11:42:32.000Z,28
2022-08-20T11:43:48.000Z,28
2022-08-20T11:45:04.854Z,27.9
2022-08-20T11:46:20.000Z,27.8
2022-08-20T11:47:36.000Z,27.6
2022-08-20T11:48:53.000Z,27.5
2022-08-20T11:50:09.000Z,27.4
2022-08-20T11:51:25.000Z,27.5
2022-08-20T11:52:40.748Z,27.6
2022-08-20T11:53:56.000Z,27.6
2022-08-20T11:55:12.000Z,27.6
2022-08-20T11:56:28.000Z,27.6
2022-08-20T11:57:45.000Z,27.5
2022-08-20T11:59:01.000Z,27.4
2022-08-20T12:00:16.651Z,27.3
2022-08-20T12:01:32.000Z,27.3
2022-08-20T12:02:48.000Z,27.3
2022-08-20T12:04:05.094Z,27.3
2022-08-20T12:05:21.000Z,27.3
2022-08-20T12:06:37.000Z,27.1
2022-08-20T12:07:53.000Z,27.2
2022-08-20T12:09:09.000Z,27.4
2022-08-20T12:10:25.000Z,27.6
2022-08-20T12:11:41.000Z,27.8
2022-08-20T12:12:57.000Z,28.1
2022-08-20T12:14:14.000Z,28.5
2022-08-20T12:15:30.415Z,28.7
2022-08-20T12:16:45.000Z,29
2022-08-20T12:18:01.000Z,29.3
2022-08-20T12:19:17.000Z,29.6
2022-08-20T12:20:34.023Z,29.9
2022-08-20T12:21:50.167Z,30.1
2022-08-20T12:23:06.000Z,30.3
2022-08-20T12:24:22.000Z,30.5
2022-08-20T12:25:38.611Z,30.7
2022-08-20T12:26:54.751Z,30.8
2022-08-20T12:28:10.000Z,30.6
2022-08-20T12:29:26.000Z,30.3
2022-08-20T12:30:43.190Z,30.1
2022-08-20T12:31:59.000Z,30
2022-08-20T12:33:14.499Z,29.8
2022-08-20T12:34:30.000Z,29.7
2022-08-20T12:35:46.000Z,29.6
2022-08-20T12:37:02.000Z,29.5
2022-08-20T12:38:19.086Z,29.5
2022-08-20T12:39:35.000Z,29.5
2022-08-20T12:40:51.000Z,29.4
2022-08-20T12:42:07.527Z,29.5
2022-08-20T12:43:23.674Z,29.5
2022-08-20T12:44:39.000Z,29.7
2022-08-20T12:45:55.000Z,29.9
2022-08-20T12:47:11.000Z,30.1
2022-08-20T12:48:28.258Z,30.3
2022-08-20T12:49:43.000Z,30.4
2022-08-20T12:50:59.000Z,30.3
2022-08-20T12:52:15.000Z,30.1
2022-08-20T12:53:31.000Z,29.8
2022-08-20T12:54:48.008Z,29.6
2022-08-20T12:56:03.000Z,29.4
2022-08-20T12:57:20.000Z,29.6
2022-08-20T12:58:36.000Z,29.7
2022-08-20T12:59:52.000Z,29.9
2022-08-20T13:01:08.000Z,30
2022-08-20T13:02:24.000Z,30.1
2022-08-20T13:03:40.000Z,30.2
2022-08-20T13:04:56.000Z,30.3
2022-08-20T13:06:12.346Z,30.3
2022-08-20T13:07:28.000Z,30.3
2022-08-20T13:08:44.636Z,30.1
2022-08-20T13:10:00.000Z,29.8
2022-08-20T13:11:16.000Z,29.5
2022-08-20T13:12:32.000Z,29.3
2022-08-20T13:13:48.000Z,29.1
2022-08-20T13:15:05.385Z,28.9
2022-08-20T13:16:21.000Z,28.7
2022-08-20T13:17:37.682Z,28.7
2022-08-20T13:18:53.000Z,28.7
2022-08-20T13:20:09.000Z,28.8
2022-08-20T13:21:25.000Z,28.9
2022-08-20T13:22:41.000Z,29
2022-08-20T13:23:57.000Z,29
2022-08-20T13:25:13.000Z,28.9
2022-08-20T13:26:29.000Z,28.6
2022-08-20T13:27:45.000Z,28.4
2022-08-20T13:29:01.000Z,28.2
2022-08-20T13:30:17.000Z,28.2
2022-08-20T13:31:34.000Z,28.2
2022-08-20T13:32:50.000Z,28.2
2022-08-20T13:34:06.000Z,28.2
2022-08-20T13:35:22.000Z,28.3
2022-08-20T13:36:38.000Z,28.3
2022-08-20T13:37:54.000Z,28.4
2022-08-20T13:39:09.000Z,28.5
2022-08-20T13:40:26.000Z,28.6
2022-08-20T13:41:42.000Z,28.7
2022-08-20T13:42:58.638Z,28.8
2022-08-20T13:44:14.000Z,28.8
2022-08-20T13:45:30.000Z,28.8
2022-08-20T13:46:46.000Z,28.8
2022-08-20T13:48:03.223Z,28.7
2022-08-20T13:49:19.000Z,28.8
2022-08-20T13:50:35.534Z,28.8
2022-08-20T13:51:51.000Z,28.8
2022-08-20T13:53:07.810Z,28.8
2022-08-20T13:54:23.000Z,28.8
2022-08-20T13:55:38.000Z,28.7
2022-08-20T13:56:55.000Z,28.7
2022-08-20T13:58:11.414Z,28.5
2022-08-20T13:59:27.000Z,28.4
2022-08-20T14:00:43.000Z,28.2
2022-08-20T14:01:59.000Z,28.1
2022-08-20T14:03:15.000Z,28.1
2022-08-20T14:04:31.000Z,28.1
2022-08-20T14:05:48.000Z,28.1
2022-08-20T14:07:04.000Z,28
2022-08-20T14:08:20.589Z,27.9
2022-08-20T14:09:36.000Z,27.8
2022-08-20T14:10:52.000Z,27.7
2022-08-20T14:12:07.000Z,27.6
2022-08-20T14:13:23.000Z,27.5
2022-08-20T14:14:40.000Z,27.4
2022-08-20T14:15:56.000Z,27.3
2022-08-20T14:17:12.634Z,27.3
2022-08-20T14:18:28.000Z,27.4
2022-08-20T14:19:44.925Z,27.5
2022-08-20T14:21:00.000Z,27.7
2022-08-20T14:22:16.000Z,27.8
2022-08-20T14:23:33.000Z,27.9
2022-08-20T14:24:49.000Z,27.9
2022-08-20T14:26:05.000Z,28
2022-08-20T14:27:21.000Z,28.1
2022-08-20T14:28:36.973Z,28.2
2022-08-20T14:29:52.000Z,28.3
2022-08-20T14:31:09.263Z,28.3
2022-08-20T14:32:25.000Z,28.3
2022-08-20T14:33:41.000Z,28.2
2022-08-20T14:34:57.000Z,28.1
2022-08-20T14:36:13.000Z,28
2022-08-20T14:37:29.000Z,28
2022-08-20T14:38:45.000Z,28
2022-08-20T14:40:02.000Z,27.9
2022-08-20T14:41:18.000Z,27.9
2022-08-20T14:42:34.000Z,27.8
2022-08-20T14:43:50.000Z,27.8
2022-08-20T14:45:05.000Z,27.7
2022-08-20T14:46:21.000Z,27.7
2022-08-20T14:47:37.000Z,27.7
2022-08-20T14:48:54.000Z,27.7
2022-08-20T14:50:10.000Z,27.7
2022-08-20T14:51:26.000Z,27.7
2022-08-20T14:52:42.000Z,27.7
2022-08-20T14:53:58.000Z,27.6
2022-08-20T14:55:14.000Z,27.6
2022-08-20T14:56:31.231Z,27.5
2022-08-20T14:57:47.000Z,27.4
2022-08-20T14:59:03.000Z,27.3
2022-08-20T15:00:19.000Z,27.2
2022-08-20T15:01:34.000Z,27.1
2022-08-20T15:02:50.000Z,26.9
2022-08-20T15:04:06.000Z,26.7
2022-08-20T15:05:23.000Z,26.6
2022-08-20T15:06:39.000Z,26.4
2022-08-20T15:07:55.554Z,26.2
2022-08-20T15:09:11.000Z,26.1
2022-08-20T15:10:27.000Z,26
2022-08-20T15:11:43.000Z,25.9
2022-08-20T15:12:59.000Z,25.8
2022-08-20T15:14:16.000Z,25.6
2022-08-20T15:15:32.000Z,25.4
2022-08-20T15:16:48.000Z,25.2
2022-08-20T15:18:03.000Z,25.1
2022-08-20T15:19:19.000Z,25
2022-08-20T15:20:36.035Z,24.9
2022-08-20T15:21:51.000Z,24.9
2022-08-20T15:23:08.000Z,24.9
2022-08-20T15:24:24.477Z,24.9
2022-08-20T15:25:40.000Z,24.9
2022-08-20T15:26:56.000Z,24.9
2022-08-20T15:28:12.000Z,24.9
2022-08-20T15:29:28.000Z,25
2022-08-20T15:30:45.210Z,25
2022-08-20T15:32:01.000Z,25.1
2022-08-20T15:33:17.000Z,25.1
2022-08-20T15:34:32.000Z,25.2
2022-08-20T15:35:48.000Z,25.3
2022-08-20T15:37:04.000Z,25.3
2022-08-20T15:38:20.000Z,25.4
2022-08-20T15:39:37.000Z,25.4
2022-08-20T15:40:53.000Z,25.5
2022-08-20T15:42:09.000Z,25.5
2022-08-20T15:43:25.000Z,25.6
2022-08-20T15:44:41.000Z,25.6
2022-08-20T15:45:57.000Z,25.6
2022-08-20T15:47:13.000Z,25.7
2022-08-20T15:48:30.000Z,25.7
2022-08-20T15:49:46.000Z,25.7
2022-08-20T15:51:01.000Z,25.6
2022-08-20T15:52:17.000Z,25.6
2022-08-20T15:53:33.000Z,25.6
2022-08-20T15:54:49.000Z,25.5
2022-08-20T15:56:05.000Z,25.5
2022-08-20T15:57:22.000Z,25.5
2022-08-20T15:58:38.000Z,25.5
2022-08-20T15:59:54.000Z,25.4
2022-08-20T16:01:10.000Z,25.4
2022-08-20T16:02:26.912Z,25.3
2022-08-20T16:03:42.000Z,25.2
2022-08-20T16:04:58.000Z,25.2
2022-08-20T16:06:15.000Z,25.1
2022-08-20T16:07:30.531Z,25
2022-08-20T16:08:46.000Z,25
2022-08-20T16:10:02.000Z,24.9
2022-08-20T16:11:18.000Z,24.8
2022-08-20T16:12:34.000Z,24.8
2022-08-20T16:13:51.000Z,24.7
2022-08-20T16:15:06.000Z,24.7
2022-08-20T16:16:22.000Z,24.6
2022-08-20T16:17:38.000Z,24.6
2022-08-20T16:18:54.000Z,24.6
2022-08-20T16:20:10.000Z,24.5
2022-08-20T16:21:26.000Z,24.5
2022-08-20T16:22:43.000Z,24.4
2022-08-20T16:23:59.000Z,24.4
2022-08-20T16:25:15.000Z,24.3
2022-08-20T16:26:31.000Z,24.3
2022-08-20T16:27:47.883Z,24.3
2022-08-20T16:29:03.000Z,24.2
2022-08-20T16:30:19.000Z,24.2
2022-08-20T16:31:35.000Z,24.2
2022-08-20T16:32:51.000Z,24.1
2022-08-20T16:34:07.000Z,24.1
2022-08-20T16:35:23.000Z,24.1
2022-08-20T16:36:39.924Z,24
2022-08-20T16:37:55.000Z,24
2022-08-20T16:39:11.000Z,24
2022-08-20T16:40:28.372Z,23.9
2022-08-20T16:41:44.000Z,23.9
2022-08-20T16:43:00.000Z,23.9
2022-08-20T16:44:16.000Z,23.9
2022-08-20T16:45:32.952Z,23.8
2022-08-20T16:46:48.000Z,23.8
2022-08-20T16:48:04.000Z,23.8
2022-08-20T16:49:20.415Z,23.8
2022-08-20T16:50:36.571Z,23.7
2022-08-20T16:51:52.700Z,23.7
2022-08-20T16:53:08.000Z,23.7
2022-08-20T16:54:24.000Z,23.7
2022-08-20T16:55:40.000Z,23.6
2022-08-20T16:56:57.000Z,23.6